Terminal Aerodrome Forecast
Issued by NWS Newport/Morehead City, NC

Home | Current Version | Previous Version | Text Only | Print | Product List | Glossary Off
Versions: 1 2 3 4 5 6 7 8 9 10 11 12 13 14 15 16 17 18 19 20 21

000
FTUS42 KMHX 212342 CCA
TAFEWN
TAF COR
KEWN 212342Z 2200/2224 35012KT P6SM VCSH SCT008 OVC015
      TEMPO 2200/2201 BKN008
     FM220400 36008KT P6SM OVC007
     FM221000 36008KT P6SM SCT030=

USA.gov is the U.S. government's official web portal to all federal, state and local government web resources and services.